Página principal
METAR-TAF:

METAR-TAF

Aeroportos :

Aeroporto Internacional Ibrahim Nasir

Malé, Maldivas

latitude: 04-12N, longitude: 073-32E, altura: 2 m

Observação actual do tempo

O boletim foi feito há 1 hora e 13 minutos, às 19:00 UTC
Vento 4 kt de oes-sudoeste
Temperatura 28°C
Humidade 84%
Pressão 1012 hPa
Visibilidade 10 km ou mais
Poucas nuvensa uma altura de 1800 ft
Nuvens fragmentadasa uma altura de 28000 ft

METAR: VRMM 201900Z 24004KT 9999 FEW018 BKN280 28/25 Q1012 NOSIG

Hora: 01:13 (20:13 UTC)

Previsão

O boletim foi feito há 3 horas e 13 minutos, às 17:00 UTC
Previsão válida de 20 às 18 UTC a 21 às 24 UTC
Vento 5 kt de oes-sudoeste
Visibilidade: 9000 m
Poucas nuvensa uma altura de 1800 ft
Temporariamente
de 20 às 19 UTC a 20 às 24 UTC
Poucas nuvensa uma altura de 1800 ft, Cumulonimbus.

TAF: VRMM 201700Z 2018/2124 25005KT 9000 FEW018 TEMPO 2019/2024 FEW018CB

Observações e previsões do tempo de mais de 4000 aeroportos (mensagens METAR e TAF).

As estações disponíveis são os pontos amarelos e vermelhos sobre o mapa.

Mova o rato sobre o mapa para ver o nome da estação.

Depois clique no ponto para visualizar as observações e previsões meteorológicas.

Para alterar o mapa : clique nos botões verdes com uma cruz preta para aumentar o zoom; no botão verde com uma pitada de zoom; ou nas setas verdes para mapas adjacentes.


METAR-TAF: